Decoded TAF's for Mozambique

 
 
Print Page
 
 

Beira - Mozambique, FQBR

ADDS - TAFS form results

Aviation Digital Data Service (ADDS)

Output produced by TAFs form (1209 UTC 21 September 2017)
found at http://aviationweather.gov/adds/tafs/
 
Forecast for: FQBR (BEIRA , MZ)
Text: TAF FQBR 211000Z 2112/2218 17012KT 9999 BKN020
Forecast period: 1200 to 1800 UTC 21 September 2017
Forecast type: FROM: standard forecast or significant change
Winds: from the S (170 degrees) at 14 MPH (12 knots; 6.2 m/s)
Visibility: 6 or more miles (10+ km)
Ceiling: 2000 feet AGL
Clouds: broken clouds at 2000 feet AGL
Weather: no significant weather forecast for this period
Text: BECMG 2118/2120 10010KT
Forecast period: 1800 UTC 21 September 2017 to 1200 UTC 22 September 2017
Forecast type: BECOMING: Conditions expected to become as follows by 2000 UTC 21 September 2017
Winds: from the E (100 degrees) at 12 MPH (10 knots; 5.2 m/s)
Visibility: 6 or more miles (10+ km)
Ceiling: 2000 feet AGL
Clouds: broken clouds at 2000 feet AGL
Weather: no significant weather forecast for this period
Text: BECMG 2212/2214 16010KT FEW025 TX29/2212Z TN20/2202Z
Forecast period: 1200 to 1800 UTC 22 September 2017
Forecast type: BECOMING: Conditions expected to become as follows by 1400 UTC 22 September 2017
Winds: from the SSE (160 degrees) at 12 MPH (10 knots; 5.2 m/s)
Visibility: 6 or more miles (10+ km)
Clouds: few clouds at 2500 feet AGL
Weather: no significant weather forecast for this period

Array
Chimoio - Mozambique, FQCH

ADDS - TAFS form results

Aviation Digital Data Service (ADDS)

Output produced by TAFs form (1209 UTC 21 September 2017)
found at http://aviationweather.gov/adds/tafs/
 
Forecast for: FQCH (CHIMOIO , MZ)
Text: TAF FQCH 211000Z 2112/2212 15010KT 9999 FEW020
Forecast period: 1200 to 1800 UTC 21 September 2017
Forecast type: FROM: standard forecast or significant change
Winds: from the SSE (150 degrees) at 12 MPH (10 knots; 5.2 m/s)
Visibility: 6 or more miles (10+ km)
Clouds: few clouds at 2000 feet AGL
Weather: no significant weather forecast for this period
Text: BECMG 2118/2120 09005KT BKN020
Forecast period: 1800 UTC 21 September 2017 to 0600 UTC 22 September 2017
Forecast type: BECOMING: Conditions expected to become as follows by 2000 UTC 21 September 2017
Winds: from the E (90 degrees) at 6 MPH (5 knots; 2.6 m/s)
Visibility: 6 or more miles (10+ km)
Ceiling: 2000 feet AGL
Clouds: broken clouds at 2000 feet AGL
Weather: no significant weather forecast for this period
Text: BECMG 2206/2208 VRB03KT TX32/2212Z TN14/2202Z
Forecast period: 0600 to 1200 UTC 22 September 2017
Forecast type: BECOMING: Conditions expected to become as follows by 0800 UTC 22 September 2017
Winds: variable direction winds at 3 MPH (3 knots; 1.6 m/s)
Visibility: 6 or more miles (10+ km)
Ceiling: 2000 feet AGL
Clouds: broken clouds at 2000 feet AGL
Weather: no significant weather forecast for this period

Array
Inhambane - Mozambique, FQIN

ADDS - TAFS form results

Aviation Digital Data Service (ADDS)

Output produced by TAFs form (1209 UTC 21 September 2017)
found at http://aviationweather.gov/adds/tafs/
 
Forecast for: FQIN (INHAMBANE , MZ)
Text: TAF FQIN 211000Z 2112/2212 08012KT 9999 FEW025
Forecast period: 1200 UTC 21 September 2017 to 0000 UTC 22 September 2017
Forecast type: FROM: standard forecast or significant change
Winds: from the E (80 degrees) at 14 MPH (12 knots; 6.2 m/s)
Visibility: 6 or more miles (10+ km)
Clouds: few clouds at 2500 feet AGL
Weather: no significant weather forecast for this period
Text: BECMG 2200/2202 VRB03KT
Forecast period: 0000 to 0600 UTC 22 September 2017
Forecast type: BECOMING: Conditions expected to become as follows by 0200 UTC 22 September 2017
Winds: variable direction winds at 3 MPH (3 knots; 1.6 m/s)
Visibility: 6 or more miles (10+ km)
Clouds: few clouds at 2500 feet AGL
Weather: no significant weather forecast for this period
Text: BECMG 2206/2208 05012KT TX28/2212Z TN17/2202Z
Forecast period: 0600 to 1200 UTC 22 September 2017
Forecast type: BECOMING: Conditions expected to become as follows by 0800 UTC 22 September 2017
Winds: from the NE (50 degrees) at 14 MPH (12 knots; 6.2 m/s)
Visibility: 6 or more miles (10+ km)
Clouds: few clouds at 2500 feet AGL
Weather: no significant weather forecast for this period

Array
Lichinga - Mozambique, FQLC

ADDS - TAFS form results

Aviation Digital Data Service (ADDS)

Output produced by TAFs form (1209 UTC 21 September 2017)
found at http://aviationweather.gov/adds/tafs/
 
Forecast for: FQLC (LICHINGA , MZ)
Text: TAF FQLC 211000Z 2112/2212 09008KT 9999 FEW025
Forecast period: 1200 to 1800 UTC 21 September 2017
Forecast type: FROM: standard forecast or significant change
Winds: from the E (90 degrees) at 9 MPH (8 knots; 4.2 m/s)
Visibility: 6 or more miles (10+ km)
Clouds: few clouds at 2500 feet AGL
Weather: no significant weather forecast for this period
Text: BECMG 2118/2120 VRB03KT BKN020
Forecast period: 1800 UTC 21 September 2017 to 0600 UTC 22 September 2017
Forecast type: BECOMING: Conditions expected to become as follows by 2000 UTC 21 September 2017
Winds: variable direction winds at 3 MPH (3 knots; 1.6 m/s)
Visibility: 6 or more miles (10+ km)
Ceiling: 2000 feet AGL
Clouds: broken clouds at 2000 feet AGL
Weather: no significant weather forecast for this period
Text: BECMG 2206/2208 07008KT TX27/2212Z TN13/2202Z
Forecast period: 0600 to 1200 UTC 22 September 2017
Forecast type: BECOMING: Conditions expected to become as follows by 0800 UTC 22 September 2017
Winds: from the ENE (70 degrees) at 9 MPH (8 knots; 4.2 m/s)
Visibility: 6 or more miles (10+ km)
Ceiling: 2000 feet AGL
Clouds: broken clouds at 2000 feet AGL
Weather: no significant weather forecast for this period

Array
Maputo - Mozambique, FQMA

ADDS - TAFS form results

Aviation Digital Data Service (ADDS)

Output produced by TAFs form (1209 UTC 21 September 2017)
found at http://aviationweather.gov/adds/tafs/
 
Forecast for: FQMA (MAPUTO/MAVALANE , MZ)
Text: TAF FQMA 211000Z 2112/2218 06012KT 9999 FEW020
Forecast period: 1200 UTC 21 September 2017 to 0000 UTC 22 September 2017
Forecast type: FROM: standard forecast or significant change
Winds: from the ENE (60 degrees) at 14 MPH (12 knots; 6.2 m/s)
Visibility: 6 or more miles (10+ km)
Clouds: few clouds at 2000 feet AGL
Weather: no significant weather forecast for this period
Text: BECMG 2200/2202 35010KT
Forecast period: 0000 to 1200 UTC 22 September 2017
Forecast type: BECOMING: Conditions expected to become as follows by 0200 UTC 22 September 2017
Winds: from the N (350 degrees) at 12 MPH (10 knots; 5.2 m/s)
Visibility: 6 or more miles (10+ km)
Clouds: few clouds at 2000 feet AGL
Weather: no significant weather forecast for this period
Text: BECMG 2212/2214 05010G20KT TX35/2212Z TN19/2202Z
Forecast period: 1200 to 1800 UTC 22 September 2017
Forecast type: BECOMING: Conditions expected to become as follows by 1400 UTC 22 September 2017
Winds: from the NE (50 degrees) at 12 MPH (10 knots; 5.2 m/s)
gusting to 23 MPH (20 knots; 10.4 m/s)
Visibility: 6 or more miles (10+ km)
Clouds: few clouds at 2000 feet AGL
Weather: no significant weather forecast for this period

Array
Nampula - Mozambique, FQNP

ADDS - TAFS form results

Aviation Digital Data Service (ADDS)

Output produced by TAFs form (1209 UTC 21 September 2017)
found at http://aviationweather.gov/adds/tafs/
 
Forecast for: FQNP (NAMPULA , MZ)
Text: TAF FQNP 211000Z 2112/2218 16010KT 9999 BKN020
Forecast period: 1200 UTC 21 September 2017 to 0000 UTC 22 September 2017
Forecast type: FROM: standard forecast or significant change
Winds: from the SSE (160 degrees) at 12 MPH (10 knots; 5.2 m/s)
Visibility: 6 or more miles (10+ km)
Ceiling: 2000 feet AGL
Clouds: broken clouds at 2000 feet AGL
Weather: no significant weather forecast for this period
Text: BECMG 2200/2202 22008KT
Forecast period: 0000 to 1200 UTC 22 September 2017
Forecast type: BECOMING: Conditions expected to become as follows by 0200 UTC 22 September 2017
Winds: from the SW (220 degrees) at 9 MPH (8 knots; 4.2 m/s)
Visibility: 6 or more miles (10+ km)
Ceiling: 2000 feet AGL
Clouds: broken clouds at 2000 feet AGL
Weather: no significant weather forecast for this period
Text: BECMG 2212/2214 16010KT TX32/2212Z TN18/2202Z
Forecast period: 1200 to 1800 UTC 22 September 2017
Forecast type: BECOMING: Conditions expected to become as follows by 1400 UTC 22 September 2017
Winds: from the SSE (160 degrees) at 12 MPH (10 knots; 5.2 m/s)
Visibility: 6 or more miles (10+ km)
Ceiling: 2000 feet AGL
Clouds: broken clouds at 2000 feet AGL
Weather: no significant weather forecast for this period

Array
Pemba - Mozambique, FQPB

ADDS - TAFS form results

Aviation Digital Data Service (ADDS)

Output produced by TAFs form (1209 UTC 21 September 2017)
found at http://aviationweather.gov/adds/tafs/
 
Forecast for: FQPB (PEMBA , MZ)
Text: TAF FQPB 211000Z 2112/2212 11012KT 9999 FEW025
Forecast period: 1200 UTC 21 September 2017 to 0000 UTC 22 September 2017
Forecast type: FROM: standard forecast or significant change
Winds: from the ESE (110 degrees) at 14 MPH (12 knots; 6.2 m/s)
Visibility: 6 or more miles (10+ km)
Clouds: few clouds at 2500 feet AGL
Weather: no significant weather forecast for this period
Text: BECMG 2200/2202 20008KT
Forecast period: 0000 to 0600 UTC 22 September 2017
Forecast type: BECOMING: Conditions expected to become as follows by 0200 UTC 22 September 2017
Winds: from the SSW (200 degrees) at 9 MPH (8 knots; 4.2 m/s)
Visibility: 6 or more miles (10+ km)
Clouds: few clouds at 2500 feet AGL
Weather: no significant weather forecast for this period
Text: BECMG 2206/2208 14010KT BKN020 TX32/2212Z TN19/2202Z
Forecast period: 0600 to 1200 UTC 22 September 2017
Forecast type: BECOMING: Conditions expected to become as follows by 0800 UTC 22 September 2017
Winds: from the SE (140 degrees) at 12 MPH (10 knots; 5.2 m/s)
Visibility: 6 or more miles (10+ km)
Ceiling: 2000 feet AGL
Clouds: broken clouds at 2000 feet AGL
Weather: no significant weather forecast for this period

Array
Quelimane - Mozambique, FQQL

ADDS - TAFS form results

Aviation Digital Data Service (ADDS)

Output produced by TAFs form (1209 UTC 21 September 2017)
found at http://aviationweather.gov/adds/tafs/
 
Forecast for: FQQL (QUELIMANE , MZ)
Text: TAF FQQL 211000Z 2112/2212 16010KT 9999 BKN020
Forecast period: 1200 UTC 21 September 2017 to 0300 UTC 22 September 2017
Forecast type: FROM: standard forecast or significant change
Winds: from the SSE (160 degrees) at 12 MPH (10 knots; 5.2 m/s)
Visibility: 6 or more miles (10+ km)
Ceiling: 2000 feet AGL
Clouds: broken clouds at 2000 feet AGL
Weather: no significant weather forecast for this period
Text: BECMG 2203/2205 VRB03KT
Forecast period: 0300 to 0600 UTC 22 September 2017
Forecast type: BECOMING: Conditions expected to become as follows by 0500 UTC 22 September 2017
Winds: variable direction winds at 3 MPH (3 knots; 1.6 m/s)
Visibility: 6 or more miles (10+ km)
Ceiling: 2000 feet AGL
Clouds: broken clouds at 2000 feet AGL
Weather: no significant weather forecast for this period
Text: BECMG 2206/2208 17008KT TX31/2212Z TN16/2202Z
Forecast period: 0600 to 1200 UTC 22 September 2017
Forecast type: BECOMING: Conditions expected to become as follows by 0800 UTC 22 September 2017
Winds: from the S (170 degrees) at 9 MPH (8 knots; 4.2 m/s)
Visibility: 6 or more miles (10+ km)
Ceiling: 2000 feet AGL
Clouds: broken clouds at 2000 feet AGL
Weather: no significant weather forecast for this period

Array
Tete - Mozambique, FQTT

ADDS - TAFS form results

Aviation Digital Data Service (ADDS)

Output produced by TAFs form (1209 UTC 21 September 2017)
found at http://aviationweather.gov/adds/tafs/
 
Forecast for: FQTT (TETE/CHINGOZI , MZ)
Text: TAF FQTT 211000Z 2112/2212 13010KT 9999 FEW025
Forecast period: 1200 UTC 21 September 2017 to 0600 UTC 22 September 2017
Forecast type: FROM: standard forecast or significant change
Winds: from the SE (130 degrees) at 12 MPH (10 knots; 5.2 m/s)
Visibility: 6 or more miles (10+ km)
Clouds: few clouds at 2500 feet AGL
Weather: no significant weather forecast for this period
Text: BECMG 2206/2208 19008KT BKN020 TX36/2212Z TN20/2202Z
Forecast period: 0600 to 1200 UTC 22 September 2017
Forecast type: BECOMING: Conditions expected to become as follows by 0800 UTC 22 September 2017
Winds: from the S (190 degrees) at 9 MPH (8 knots; 4.2 m/s)
Visibility: 6 or more miles (10+ km)
Ceiling: 2000 feet AGL
Clouds: broken clouds at 2000 feet AGL
Weather: no significant weather forecast for this period

Array
Vilanculos - Mozambique, FQVL

ADDS - TAFS form results

Aviation Digital Data Service (ADDS)

Output produced by TAFs form (1209 UTC 21 September 2017)
found at http://aviationweather.gov/adds/tafs/
 
Forecast for: FQVL (VILANCULOS , MZ)
Text: TAF FQVL 211000Z 2112/2212 12012KT 9999 FEW025
Forecast period: 1200 UTC 21 September 2017 to 0000 UTC 22 September 2017
Forecast type: FROM: standard forecast or significant change
Winds: from the ESE (120 degrees) at 14 MPH (12 knots; 6.2 m/s)
Visibility: 6 or more miles (10+ km)
Clouds: few clouds at 2500 feet AGL
Weather: no significant weather forecast for this period
Text: BECMG 2200/2202 VRB03KT
Forecast period: 0000 to 0600 UTC 22 September 2017
Forecast type: BECOMING: Conditions expected to become as follows by 0200 UTC 22 September 2017
Winds: variable direction winds at 3 MPH (3 knots; 1.6 m/s)
Visibility: 6 or more miles (10+ km)
Clouds: few clouds at 2500 feet AGL
Weather: no significant weather forecast for this period
Text: BECMG 2206/2208 08007KT TX28/2212Z TN18/2202Z
Forecast period: 0600 to 1200 UTC 22 September 2017
Forecast type: BECOMING: Conditions expected to become as follows by 0800 UTC 22 September 2017
Winds: from the E (80 degrees) at 8 MPH (7 knots; 3.6 m/s)
Visibility: 6 or more miles (10+ km)
Clouds: few clouds at 2500 feet AGL
Weather: no significant weather forecast for this period

Array